Friend, Nebraska
Current Conditions -  °F | °C
As of 6:35 AM on Friday 26 Dec 2014 (Local Time) from KJYR Reporting Station
Overcast Overcast  
Wind Chill: 17°   Ceiling: 800
Heat Index: 28°   Visibility: 10mi
Dew Point: 27°   Wind: 15mph
Humidity: 93%   Direction: 360°N
Pressure: 29.95"   Gusts: 24mph
Location:  40.65°N, 97.29°W
Report Text: KJYR 261235Z AUTO 36013G21KT 10SM OVC008 M02/M03 A2995 RMK AO2
Loading
Personal Weather Stations






























Interactive Weather Map New forecast layout! Learn more

10-Day Weather Forecast

Advertisements
Track Severe Weather on mobile